sensor_id;sensor_type;location;lat;lon;timestamp;P1;durP1;ratioP1;P2;durP2;ratioP2
14078;SDS011;7115;50.150;8.568;2023-12-07T00:00:03;16.87;;;8.30;;
14078;SDS011;7115;50.150;8.568;2023-12-07T00:02:32;12.17;;;8.20;;
14078;SDS011;7115;50.150;8.568;2023-12-07T00:04:59;11.00;;;7.83;;
14078;SDS011;7115;50.150;8.568;2023-12-07T00:07:26;11.27;;;7.83;;
14078;SDS011;7115;50.150;8.568;2023-12-07T00:09:53;14.57;;;8.53;;
14078;SDS011;7115;50.150;8.568;2023-12-07T00:12:20;16.17;;;8.43;;
14078;SDS011;7115;50.150;8.568;2023-12-07T00:14:47;13.20;;;8.07;;
14078;SDS011;7115;50.150;8.568;2023-12-07T00:17:14;16.67;;;8.53;;
14078;SDS011;7115;50.150;8.568;2023-12-07T00:19:43;15.70;;;8.93;;
14078;SDS011;7115;50.150;8.568;2023-12-07T00:22:10;12.87;;;8.20;;
14078;SDS011;7115;50.150;8.568;2023-12-07T00:24:37;17.50;;;8.17;;
14078;SDS011;7115;50.150;8.568;2023-12-07T00:27:03;14.27;;;7.83;;
14078;SDS011;7115;50.150;8.568;2023-12-07T00:29:31;13.27;;;8.60;;
14078;SDS011;7115;50.150;8.568;2023-12-07T00:31:58;13.57;;;8.07;;
14078;SDS011;7115;50.150;8.568;2023-12-07T00:34:26;13.20;;;8.60;;
14078;SDS011;7115;50.150;8.568;2023-12-07T00:36:54;15.03;;;8.37;;
14078;SDS011;7115;50.150;8.568;2023-12-07T00:39:21;15.77;;;8.47;;
14078;SDS011;7115;50.150;8.568;2023-12-07T00:41:48;17.40;;;8.67;;
14078;SDS011;7115;50.150;8.568;2023-12-07T00:44:15;11.20;;;7.87;;
14078;SDS011;7115;50.150;8.568;2023-12-07T00:46:42;12.60;;;8.00;;
14078;SDS011;7115;50.150;8.568;2023-12-07T00:49:09;12.17;;;7.97;;
14078;SDS011;7115;50.150;8.568;2023-12-07T00:51:36;15.57;;;8.20;;
14078;SDS011;7115;50.150;8.568;2023-12-07T00:54:05;16.10;;;8.33;;
14078;SDS011;7115;50.150;8.568;2023-12-07T00:56:32;13.90;;;7.93;;
14078;SDS011;7115;50.150;8.568;2023-12-07T00:58:59;14.17;;;8.00;;
14078;SDS011;7115;50.150;8.568;2023-12-07T01:01:27;14.60;;;8.20;;
14078;SDS011;7115;50.150;8.568;2023-12-07T01:03:54;13.83;;;8.47;;
14078;SDS011;7115;50.150;8.568;2023-12-07T01:06:21;14.13;;;8.33;;
14078;SDS011;7115;50.150;8.568;2023-12-07T01:08:48;15.60;;;8.43;;
14078;SDS011;7115;50.150;8.568;2023-12-07T01:11:17;11.60;;;8.17;;
14078;SDS011;7115;50.150;8.568;2023-12-07T01:13:44;16.63;;;8.53;;
14078;SDS011;7115;50.150;8.568;2023-12-07T01:16:10;15.07;;;8.60;;
14078;SDS011;7115;50.150;8.568;2023-12-07T01:18:38;11.30;;;8.43;;
14078;SDS011;7115;50.150;8.568;2023-12-07T01:21:05;13.43;;;8.27;;
14078;SDS011;7115;50.150;8.568;2023-12-07T01:23:32;15.80;;;8.63;;
14078;SDS011;7115;50.150;8.568;2023-12-07T01:25:59;13.97;;;8.30;;
14078;SDS011;7115;50.150;8.568;2023-12-07T01:28:30;11.67;;;7.77;;
14078;SDS011;7115;50.150;8.568;2023-12-07T01:30:57;14.43;;;7.80;;
14078;SDS011;7115;50.150;8.568;2023-12-07T01:33:24;13.50;;;7.77;;
14078;SDS011;7115;50.150;8.568;2023-12-07T01:35:51;11.23;;;7.40;;
14078;SDS011;7115;50.150;8.568;2023-12-07T01:38:18;12.67;;;7.47;;
14078;SDS011;7115;50.150;8.568;2023-12-07T01:40:45;16.53;;;7.47;;
14078;SDS011;7115;50.150;8.568;2023-12-07T01:43:13;16.13;;;8.07;;
14078;SDS011;7115;50.150;8.568;2023-12-07T01:45:41;14.47;;;8.10;;
14078;SDS011;7115;50.150;8.568;2023-12-07T01:48:08;12.93;;;8.37;;
14078;SDS011;7115;50.150;8.568;2023-12-07T01:50:35;11.43;;;7.47;;
14078;SDS011;7115;50.150;8.568;2023-12-07T01:53:02;12.87;;;7.30;;
14078;SDS011;7115;50.150;8.568;2023-12-07T01:55:34;12.00;;;7.77;;
14078;SDS011;7115;50.150;8.568;2023-12-07T01:58:02;11.50;;;7.37;;
14078;SDS011;7115;50.150;8.568;2023-12-07T02:00:30;14.77;;;8.10;;
14078;SDS011;7115;50.150;8.568;2023-12-07T02:02:58;14.67;;;8.50;;
14078;SDS011;7115;50.150;8.568;2023-12-07T02:05:26;12.37;;;7.50;;
14078;SDS011;7115;50.150;8.568;2023-12-07T02:07:53;13.47;;;7.50;;
14078;SDS011;7115;50.150;8.568;2023-12-07T02:10:20;12.03;;;7.33;;
14078;SDS011;7115;50.150;8.568;2023-12-07T02:12:48;12.80;;;7.40;;
14078;SDS011;7115;50.150;8.568;2023-12-07T02:15:15;12.50;;;7.83;;
14078;SDS011;7115;50.150;8.568;2023-12-07T02:17:44;11.17;;;6.93;;
14078;SDS011;7115;50.150;8.568;2023-12-07T02:20:20;14.87;;;8.30;;
14078;SDS011;7115;50.150;8.568;2023-12-07T02:22:52;10.13;;;5.97;;
14078;SDS011;7115;50.150;8.568;2023-12-07T02:25:23;9.67;;;6.43;;
14078;SDS011;7115;50.150;8.568;2023-12-07T02:27:54;11.83;;;6.97;;
14078;SDS011;7115;50.150;8.568;2023-12-07T02:30:21;10.33;;;6.37;;
14078;SDS011;7115;50.150;8.568;2023-12-07T02:32:48;14.40;;;7.83;;
14078;SDS011;7115;50.150;8.568;2023-12-07T02:35:15;11.70;;;7.20;;
14078;SDS011;7115;50.150;8.568;2023-12-07T02:37:43;13.23;;;7.57;;
14078;SDS011;7115;50.150;8.568;2023-12-07T02:40:13;12.77;;;7.10;;
14078;SDS011;7115;50.150;8.568;2023-12-07T02:42:43;10.30;;;6.90;;
14078;SDS011;7115;50.150;8.568;2023-12-07T02:45:12;9.80;;;7.13;;
14078;SDS011;7115;50.150;8.568;2023-12-07T02:47:39;11.90;;;7.53;;
14078;SDS011;7115;50.150;8.568;2023-12-07T02:50:07;14.87;;;8.73;;
14078;SDS011;7115;50.150;8.568;2023-12-07T02:52:34;10.27;;;7.27;;
14078;SDS011;7115;50.150;8.568;2023-12-07T02:55:02;15.57;;;8.47;;
14078;SDS011;7115;50.150;8.568;2023-12-07T02:57:29;15.30;;;7.57;;
14078;SDS011;7115;50.150;8.568;2023-12-07T02:59:56;10.70;;;7.83;;
14078;SDS011;7115;50.150;8.568;2023-12-07T03:02:25;9.90;;;7.23;;
14078;SDS011;7115;50.150;8.568;2023-12-07T03:04:52;13.57;;;7.73;;
14078;SDS011;7115;50.150;8.568;2023-12-07T03:07:19;10.07;;;7.00;;
14078;SDS011;7115;50.150;8.568;2023-12-07T03:09:46;10.67;;;7.63;;
14078;SDS011;7115;50.150;8.568;2023-12-07T03:12:13;8.97;;;6.43;;
14078;SDS011;7115;50.150;8.568;2023-12-07T03:14:40;11.87;;;7.53;;
14078;SDS011;7115;50.150;8.568;2023-12-07T03:17:07;14.17;;;7.43;;
14078;SDS011;7115;50.150;8.568;2023-12-07T03:19:38;12.20;;;7.50;;
14078;SDS011;7115;50.150;8.568;2023-12-07T03:22:06;13.80;;;7.77;;
14078;SDS011;7115;50.150;8.568;2023-12-07T03:24:33;13.93;;;7.50;;
14078;SDS011;7115;50.150;8.568;2023-12-07T03:27:00;13.97;;;8.50;;
14078;SDS011;7115;50.150;8.568;2023-12-07T03:29:27;11.50;;;8.73;;
14078;SDS011;7115;50.150;8.568;2023-12-07T03:31:54;17.90;;;9.90;;
14078;SDS011;7115;50.150;8.568;2023-12-07T03:34:21;20.27;;;9.03;;
14078;SDS011;7115;50.150;8.568;2023-12-07T03:36:49;11.10;;;7.83;;
14078;SDS011;7115;50.150;8.568;2023-12-07T03:39:17;16.60;;;9.20;;
14078;SDS011;7115;50.150;8.568;2023-12-07T03:41:51;13.00;;;8.80;;
14078;SDS011;7115;50.150;8.568;2023-12-07T03:44:18;15.60;;;9.17;;
14078;SDS011;7115;50.150;8.568;2023-12-07T03:46:46;15.37;;;10.10;;
14078;SDS011;7115;50.150;8.568;2023-12-07T03:49:13;13.27;;;8.83;;
14078;SDS011;7115;50.150;8.568;2023-12-07T03:51:40;14.77;;;8.77;;
14078;SDS011;7115;50.150;8.568;2023-12-07T03:54:08;15.67;;;9.13;;
14078;SDS011;7115;50.150;8.568;2023-12-07T03:56:35;15.67;;;8.63;;
14078;SDS011;7115;50.150;8.568;2023-12-07T03:59:02;13.00;;;8.97;;
14078;SDS011;7115;50.150;8.568;2023-12-07T04:01:29;16.20;;;9.37;;
14078;SDS011;7115;50.150;8.568;2023-12-07T04:03:56;14.07;;;9.43;;
14078;SDS011;7115;50.150;8.568;2023-12-07T04:06:24;16.57;;;9.40;;
14078;SDS011;7115;50.150;8.568;2023-12-07T04:08:51;15.63;;;9.63;;
14078;SDS011;7115;50.150;8.568;2023-12-07T04:11:20;19.53;;;10.23;;
14078;SDS011;7115;50.150;8.568;2023-12-07T04:13:47;16.27;;;9.23;;
14078;SDS011;7115;50.150;8.568;2023-12-07T04:16:15;18.63;;;10.37;;
14078;SDS011;7115;50.150;8.568;2023-12-07T04:18:42;22.13;;;10.70;;
14078;SDS011;7115;50.150;8.568;2023-12-07T04:21:10;16.70;;;9.73;;
14078;SDS011;7115;50.150;8.568;2023-12-07T04:23:36;18.47;;;11.13;;
14078;SDS011;7115;50.150;8.568;2023-12-07T04:26:03;15.30;;;9.67;;
14078;SDS011;7115;50.150;8.568;2023-12-07T04:28:32;15.20;;;10.23;;
14078;SDS011;7115;50.150;8.568;2023-12-07T04:30:59;17.37;;;10.30;;
14078;SDS011;7115;50.150;8.568;2023-12-07T04:33:26;17.30;;;10.10;;
14078;SDS011;7115;50.150;8.568;2023-12-07T04:35:53;22.80;;;10.80;;
14078;SDS011;7115;50.150;8.568;2023-12-07T04:38:20;17.43;;;10.20;;
14078;SDS011;7115;50.150;8.568;2023-12-07T04:40:47;15.30;;;10.43;;
14078;SDS011;7115;50.150;8.568;2023-12-07T04:43:14;18.93;;;11.60;;
14078;SDS011;7115;50.150;8.568;2023-12-07T04:45:42;19.93;;;11.10;;
14078;SDS011;7115;50.150;8.568;2023-12-07T04:48:09;22.13;;;10.60;;
14078;SDS011;7115;50.150;8.568;2023-12-07T04:50:36;18.57;;;11.03;;
14078;SDS011;7115;50.150;8.568;2023-12-07T04:53:03;16.27;;;10.27;;
14078;SDS011;7115;50.150;8.568;2023-12-07T04:55:30;25.63;;;12.10;;
14078;SDS011;7115;50.150;8.568;2023-12-07T04:57:57;16.33;;;10.13;;
14078;SDS011;7115;50.150;8.568;2023-12-07T05:00:24;16.73;;;10.20;;
14078;SDS011;7115;50.150;8.568;2023-12-07T05:02:52;16.67;;;10.40;;
14078;SDS011;7115;50.150;8.568;2023-12-07T05:05:19;21.97;;;10.80;;
14078;SDS011;7115;50.150;8.568;2023-12-07T05:07:46;19.37;;;10.67;;
14078;SDS011;7115;50.150;8.568;2023-12-07T05:10:13;18.60;;;10.20;;
14078;SDS011;7115;50.150;8.568;2023-12-07T05:12:40;18.40;;;9.90;;
14078;SDS011;7115;50.150;8.568;2023-12-07T05:15:07;17.17;;;9.80;;
14078;SDS011;7115;50.150;8.568;2023-12-07T05:17:35;15.93;;;10.30;;
14078;SDS011;7115;50.150;8.568;2023-12-07T05:20:04;16.60;;;10.07;;
14078;SDS011;7115;50.150;8.568;2023-12-07T05:22:33;21.17;;;10.10;;
14078;SDS011;7115;50.150;8.568;2023-12-07T05:25:00;15.73;;;9.97;;
14078;SDS011;7115;50.150;8.568;2023-12-07T05:27:27;16.40;;;9.73;;
14078;SDS011;7115;50.150;8.568;2023-12-07T05:29:54;16.67;;;9.93;;
14078;SDS011;7115;50.150;8.568;2023-12-07T05:32:21;15.70;;;9.87;;
14078;SDS011;7115;50.150;8.568;2023-12-07T05:34:48;19.77;;;10.30;;
14078;SDS011;7115;50.150;8.568;2023-12-07T05:37:18;21.23;;;9.53;;
14078;SDS011;7115;50.150;8.568;2023-12-07T05:39:45;16.30;;;9.63;;
14078;SDS011;7115;50.150;8.568;2023-12-07T05:42:12;20.03;;;8.70;;
14078;SDS011;7115;50.150;8.568;2023-12-07T05:44:39;12.23;;;8.53;;
14078;SDS011;7115;50.150;8.568;2023-12-07T05:47:06;14.57;;;8.67;;
14078;SDS011;7115;50.150;8.568;2023-12-07T05:49:34;15.83;;;9.10;;
14078;SDS011;7115;50.150;8.568;2023-12-07T05:52:01;15.93;;;8.70;;
14078;SDS011;7115;50.150;8.568;2023-12-07T05:54:30;13.33;;;8.97;;
14078;SDS011;7115;50.150;8.568;2023-12-07T05:56:57;16.00;;;8.97;;
14078;SDS011;7115;50.150;8.568;2023-12-07T05:59:24;14.57;;;8.80;;
14078;SDS011;7115;50.150;8.568;2023-12-07T06:01:51;15.10;;;8.83;;
14078;SDS011;7115;50.150;8.568;2023-12-07T06:04:19;15.03;;;8.60;;
14078;SDS011;7115;50.150;8.568;2023-12-07T06:06:46;16.57;;;8.87;;
14078;SDS011;7115;50.150;8.568;2023-12-07T06:09:13;12.73;;;8.53;;
14078;SDS011;7115;50.150;8.568;2023-12-07T06:11:42;17.53;;;8.93;;
14078;SDS011;7115;50.150;8.568;2023-12-07T06:14:09;13.10;;;9.10;;
14078;SDS011;7115;50.150;8.568;2023-12-07T06:16:36;13.90;;;8.50;;
14078;SDS011;7115;50.150;8.568;2023-12-07T06:19:03;13.40;;;8.07;;
14078;SDS011;7115;50.150;8.568;2023-12-07T06:21:31;16.50;;;10.17;;
14078;SDS011;7115;50.150;8.568;2023-12-07T06:23:59;13.47;;;8.53;;
14078;SDS011;7115;50.150;8.568;2023-12-07T06:26:26;19.37;;;9.43;;
14078;SDS011;7115;50.150;8.568;2023-12-07T06:28:55;18.80;;;8.90;;
14078;SDS011;7115;50.150;8.568;2023-12-07T06:31:21;16.07;;;8.23;;
14078;SDS011;7115;50.150;8.568;2023-12-07T06:33:49;18.93;;;9.30;;
14078;SDS011;7115;50.150;8.568;2023-12-07T06:36:20;15.70;;;9.83;;
14078;SDS011;7115;50.150;8.568;2023-12-07T06:38:48;17.83;;;10.83;;
14078;SDS011;7115;50.150;8.568;2023-12-07T06:41:15;16.33;;;10.07;;
14078;SDS011;7115;50.150;8.568;2023-12-07T06:43:42;20.40;;;10.07;;
14078;SDS011;7115;50.150;8.568;2023-12-07T06:46:12;18.20;;;9.70;;
14078;SDS011;7115;50.150;8.568;2023-12-07T06:48:40;17.73;;;9.23;;
14078;SDS011;7115;50.150;8.568;2023-12-07T06:51:07;15.53;;;9.50;;
14078;SDS011;7115;50.150;8.568;2023-12-07T06:53:34;14.67;;;9.10;;
14078;SDS011;7115;50.150;8.568;2023-12-07T06:56:01;14.47;;;8.20;;
14078;SDS011;7115;50.150;8.568;2023-12-07T06:58:29;20.03;;;10.00;;
14078;SDS011;7115;50.150;8.568;2023-12-07T07:00:56;19.73;;;9.33;;
14078;SDS011;7115;50.150;8.568;2023-12-07T07:03:25;15.97;;;9.73;;
14078;SDS011;7115;50.150;8.568;2023-12-07T07:05:54;18.20;;;9.77;;
14078;SDS011;7115;50.150;8.568;2023-12-07T07:08:21;20.47;;;10.80;;
14078;SDS011;7115;50.150;8.568;2023-12-07T07:10:48;18.33;;;10.53;;
14078;SDS011;7115;50.150;8.568;2023-12-07T07:13:15;20.37;;;11.07;;
14078;SDS011;7115;50.150;8.568;2023-12-07T07:15:43;24.27;;;11.30;;
14078;SDS011;7115;50.150;8.568;2023-12-07T07:18:10;23.57;;;11.60;;
14078;SDS011;7115;50.150;8.568;2023-12-07T07:20:39;21.77;;;11.70;;
14078;SDS011;7115;50.150;8.568;2023-12-07T07:23:06;20.83;;;11.53;;
14078;SDS011;7115;50.150;8.568;2023-12-07T07:25:34;24.77;;;12.10;;
14078;SDS011;7115;50.150;8.568;2023-12-07T07:28:02;25.97;;;13.07;;
14078;SDS011;7115;50.150;8.568;2023-12-07T07:30:29;25.70;;;12.67;;
14078;SDS011;7115;50.150;8.568;2023-12-07T07:32:56;28.17;;;12.83;;
14078;SDS011;7115;50.150;8.568;2023-12-07T07:35:23;27.63;;;13.47;;
14078;SDS011;7115;50.150;8.568;2023-12-07T07:37:52;22.20;;;12.00;;
14078;SDS011;7115;50.150;8.568;2023-12-07T07:40:20;20.87;;;11.63;;
14078;SDS011;7115;50.150;8.568;2023-12-07T07:42:47;18.30;;;11.47;;
14078;SDS011;7115;50.150;8.568;2023-12-07T07:45:14;16.07;;;10.63;;
14078;SDS011;7115;50.150;8.568;2023-12-07T07:47:41;18.60;;;10.73;;
14078;SDS011;7115;50.150;8.568;2023-12-07T07:50:08;16.67;;;10.00;;
14078;SDS011;7115;50.150;8.568;2023-12-07T07:52:36;17.03;;;10.07;;
14078;SDS011;7115;50.150;8.568;2023-12-07T07:55:05;22.13;;;11.30;;
14078;SDS011;7115;50.150;8.568;2023-12-07T07:57:33;21.40;;;11.60;;
14078;SDS011;7115;50.150;8.568;2023-12-07T08:00:00;19.50;;;10.97;;
14078;SDS011;7115;50.150;8.568;2023-12-07T08:02:27;15.97;;;10.93;;
14078;SDS011;7115;50.150;8.568;2023-12-07T08:04:54;18.07;;;10.10;;
14078;SDS011;7115;50.150;8.568;2023-12-07T08:07:21;17.27;;;10.83;;
14078;SDS011;7115;50.150;8.568;2023-12-07T08:09:49;15.37;;;10.07;;
14078;SDS011;7115;50.150;8.568;2023-12-07T08:12:17;22.70;;;13.20;;
14078;SDS011;7115;50.150;8.568;2023-12-07T08:14:44;29.53;;;13.13;;
14078;SDS011;7115;50.150;8.568;2023-12-07T08:17:12;21.67;;;12.57;;
14078;SDS011;7115;50.150;8.568;2023-12-07T08:19:41;20.57;;;12.13;;
14078;SDS011;7115;50.150;8.568;2023-12-07T08:22:08;17.07;;;10.63;;
14078;SDS011;7115;50.150;8.568;2023-12-07T08:24:35;17.97;;;11.07;;
14078;SDS011;7115;50.150;8.568;2023-12-07T08:27:03;30.07;;;15.60;;
14078;SDS011;7115;50.150;8.568;2023-12-07T08:29:31;24.07;;;15.20;;
14078;SDS011;7115;50.150;8.568;2023-12-07T08:31:58;22.90;;;12.43;;
14078;SDS011;7115;50.150;8.568;2023-12-07T08:34:25;21.17;;;11.90;;
14078;SDS011;7115;50.150;8.568;2023-12-07T08:36:52;15.97;;;10.93;;
14078;SDS011;7115;50.150;8.568;2023-12-07T08:39:20;18.57;;;10.23;;
14078;SDS011;7115;50.150;8.568;2023-12-07T08:41:46;18.20;;;11.60;;
14078;SDS011;7115;50.150;8.568;2023-12-07T08:44:13;21.70;;;11.03;;
14078;SDS011;7115;50.150;8.568;2023-12-07T08:46:42;15.70;;;9.80;;
14078;SDS011;7115;50.150;8.568;2023-12-07T08:49:11;15.53;;;9.00;;
14078;SDS011;7115;50.150;8.568;2023-12-07T08:51:38;15.33;;;9.50;;
14078;SDS011;7115;50.150;8.568;2023-12-07T08:54:22;15.40;;;9.53;;
14078;SDS011;7115;50.150;8.568;2023-12-07T08:56:49;15.23;;;9.07;;
14078;SDS011;7115;50.150;8.568;2023-12-07T08:59:17;14.67;;;8.60;;
14078;SDS011;7115;50.150;8.568;2023-12-07T09:01:45;14.10;;;8.77;;
14078;SDS011;7115;50.150;8.568;2023-12-07T09:04:12;14.53;;;8.07;;
14078;SDS011;7115;50.150;8.568;2023-12-07T09:06:39;16.43;;;10.57;;
14078;SDS011;7115;50.150;8.568;2023-12-07T09:09:06;18.40;;;10.30;;
14078;SDS011;7115;50.150;8.568;2023-12-07T09:11:33;16.43;;;10.57;;
14078;SDS011;7115;50.150;8.568;2023-12-07T09:14:00;20.53;;;10.93;;
14078;SDS011;7115;50.150;8.568;2023-12-07T09:16:27;25.80;;;16.53;;
14078;SDS011;7115;50.150;8.568;2023-12-07T09:18:55;26.30;;;14.87;;
14078;SDS011;7115;50.150;8.568;2023-12-07T09:21:22;18.67;;;11.80;;
14078;SDS011;7115;50.150;8.568;2023-12-07T09:23:49;19.17;;;12.13;;
14078;SDS011;7115;50.150;8.568;2023-12-07T09:26:17;20.30;;;11.43;;
14078;SDS011;7115;50.150;8.568;2023-12-07T09:28:44;17.30;;;11.33;;
14078;SDS011;7115;50.150;8.568;2023-12-07T09:31:11;20.10;;;10.97;;
14078;SDS011;7115;50.150;8.568;2023-12-07T09:33:38;21.80;;;11.63;;
14078;SDS011;7115;50.150;8.568;2023-12-07T09:36:07;20.37;;;12.00;;
14078;SDS011;7115;50.150;8.568;2023-12-07T09:38:35;25.50;;;12.57;;
14078;SDS011;7115;50.150;8.568;2023-12-07T09:41:02;23.33;;;12.20;;
14078;SDS011;7115;50.150;8.568;2023-12-07T09:43:30;25.73;;;12.83;;
14078;SDS011;7115;50.150;8.568;2023-12-07T09:45:57;20.60;;;12.77;;
14078;SDS011;7115;50.150;8.568;2023-12-07T09:48:24;23.30;;;13.40;;
14078;SDS011;7115;50.150;8.568;2023-12-07T09:50:52;24.60;;;13.93;;
14078;SDS011;7115;50.150;8.568;2023-12-07T09:53:23;24.70;;;13.77;;
14078;SDS011;7115;50.150;8.568;2023-12-07T09:55:50;24.80;;;13.53;;
14078;SDS011;7115;50.150;8.568;2023-12-07T09:58:17;26.70;;;13.43;;
14078;SDS011;7115;50.150;8.568;2023-12-07T10:00:57;26.77;;;13.43;;
14078;SDS011;7115;50.150;8.568;2023-12-07T10:03:24;22.80;;;12.57;;
14078;SDS011;7115;50.150;8.568;2023-12-07T10:05:54;21.60;;;12.13;;
14078;SDS011;7115;50.150;8.568;2023-12-07T10:08:27;19.40;;;11.57;;
14078;SDS011;7115;50.150;8.568;2023-12-07T10:11:05;16.87;;;11.80;;
14078;SDS011;7115;50.150;8.568;2023-12-07T10:13:33;18.17;;;9.47;;
14078;SDS011;7115;50.150;8.568;2023-12-07T10:16:05;16.23;;;9.67;;
14078;SDS011;7115;50.150;8.568;2023-12-07T10:18:35;19.73;;;10.77;;
14078;SDS011;7115;50.150;8.568;2023-12-07T10:21:04;16.87;;;10.20;;
14078;SDS011;7115;50.150;8.568;2023-12-07T10:23:33;14.13;;;9.80;;
14078;SDS011;7115;50.150;8.568;2023-12-07T10:26:00;13.23;;;9.53;;
14078;SDS011;7115;50.150;8.568;2023-12-07T10:28:28;14.53;;;10.27;;
14078;SDS011;7115;50.150;8.568;2023-12-07T10:30:55;20.33;;;11.73;;
14078;SDS011;7115;50.150;8.568;2023-12-07T10:33:25;18.47;;;10.93;;
14078;SDS011;7115;50.150;8.568;2023-12-07T10:35:52;21.43;;;11.57;;
14078;SDS011;7115;50.150;8.568;2023-12-07T10:38:19;22.27;;;12.43;;
14078;SDS011;7115;50.150;8.568;2023-12-07T10:40:48;22.70;;;12.43;;
14078;SDS011;7115;50.150;8.568;2023-12-07T10:43:23;20.20;;;11.97;;
14078;SDS011;7115;50.150;8.568;2023-12-07T10:45:50;20.93;;;13.67;;
14078;SDS011;7115;50.150;8.568;2023-12-07T10:48:18;21.60;;;13.27;;
14078;SDS011;7115;50.150;8.568;2023-12-07T10:50:46;22.50;;;12.60;;
14078;SDS011;7115;50.150;8.568;2023-12-07T10:53:19;19.43;;;12.50;;
14078;SDS011;7115;50.150;8.568;2023-12-07T10:55:55;21.83;;;14.33;;
14078;SDS011;7115;50.150;8.568;2023-12-07T10:58:26;29.90;;;17.07;;
14078;SDS011;7115;50.150;8.568;2023-12-07T11:00:54;29.67;;;16.73;;
14078;SDS011;7115;50.150;8.568;2023-12-07T11:03:24;29.20;;;17.90;;
14078;SDS011;7115;50.150;8.568;2023-12-07T11:05:52;32.50;;;17.97;;
14078;SDS011;7115;50.150;8.568;2023-12-07T11:08:21;26.73;;;16.97;;
14078;SDS011;7115;50.150;8.568;2023-12-07T11:10:58;34.10;;;17.50;;
14078;SDS011;7115;50.150;8.568;2023-12-07T11:13:29;27.20;;;16.83;;
14078;SDS011;7115;50.150;8.568;2023-12-07T11:15:57;30.03;;;17.60;;
14078;SDS011;7115;50.150;8.568;2023-12-07T11:18:24;26.40;;;17.47;;
14078;SDS011;7115;50.150;8.568;2023-12-07T11:20:52;35.10;;;17.30;;
14078;SDS011;7115;50.150;8.568;2023-12-07T11:23:21;28.37;;;16.83;;
14078;SDS011;7115;50.150;8.568;2023-12-07T11:25:49;32.70;;;18.93;;
14078;SDS011;7115;50.150;8.568;2023-12-07T11:28:21;29.00;;;17.53;;
14078;SDS011;7115;50.150;8.568;2023-12-07T11:31:01;30.93;;;17.60;;
14078;SDS011;7115;50.150;8.568;2023-12-07T11:33:29;30.97;;;18.33;;
14078;SDS011;7115;50.150;8.568;2023-12-07T11:36:02;31.53;;;17.53;;
14078;SDS011;7115;50.150;8.568;2023-12-07T11:38:30;30.47;;;16.13;;
14078;SDS011;7115;50.150;8.568;2023-12-07T11:40:57;33.03;;;17.17;;
14078;SDS011;7115;50.150;8.568;2023-12-07T11:43:37;28.83;;;16.53;;
14078;SDS011;7115;50.150;8.568;2023-12-07T11:46:10;31.57;;;18.40;;
14078;SDS011;7115;50.150;8.568;2023-12-07T11:48:38;31.77;;;18.07;;
14078;SDS011;7115;50.150;8.568;2023-12-07T11:51:05;25.53;;;15.83;;
14078;SDS011;7115;50.150;8.568;2023-12-07T11:53:39;29.43;;;16.83;;
14078;SDS011;7115;50.150;8.568;2023-12-07T11:56:07;24.63;;;14.67;;
14078;SDS011;7115;50.150;8.568;2023-12-07T11:58:35;30.83;;;17.80;;
14078;SDS011;7115;50.150;8.568;2023-12-07T12:01:07;33.23;;;19.27;;
14078;SDS011;7115;50.150;8.568;2023-12-07T12:03:35;35.37;;;19.80;;
14078;SDS011;7115;50.150;8.568;2023-12-07T12:06:03;35.37;;;19.37;;
14078;SDS011;7115;50.150;8.568;2023-12-07T12:08:32;35.07;;;19.20;;
14078;SDS011;7115;50.150;8.568;2023-12-07T12:10:59;39.13;;;20.17;;
14078;SDS011;7115;50.150;8.568;2023-12-07T12:13:27;38.27;;;19.83;;
14078;SDS011;7115;50.150;8.568;2023-12-07T12:15:57;36.00;;;20.67;;
14078;SDS011;7115;50.150;8.568;2023-12-07T12:18:29;38.67;;;20.47;;
14078;SDS011;7115;50.150;8.568;2023-12-07T12:20:56;33.70;;;18.73;;
14078;SDS011;7115;50.150;8.568;2023-12-07T12:23:25;30.23;;;18.20;;
14078;SDS011;7115;50.150;8.568;2023-12-07T12:25:53;33.70;;;17.97;;
14078;SDS011;7115;50.150;8.568;2023-12-07T12:28:20;41.67;;;20.33;;
14078;SDS011;7115;50.150;8.568;2023-12-07T12:30:50;41.07;;;19.10;;
14078;SDS011;7115;50.150;8.568;2023-12-07T12:33:19;40.00;;;20.53;;
14078;SDS011;7115;50.150;8.568;2023-12-07T12:35:46;37.13;;;19.40;;
14078;SDS011;7115;50.150;8.568;2023-12-07T12:38:25;40.77;;;19.20;;
14078;SDS011;7115;50.150;8.568;2023-12-07T12:41:06;36.23;;;19.60;;
14078;SDS011;7115;50.150;8.568;2023-12-07T12:43:34;43.37;;;23.00;;
14078;SDS011;7115;50.150;8.568;2023-12-07T12:46:02;45.13;;;22.30;;
14078;SDS011;7115;50.150;8.568;2023-12-07T12:48:33;44.87;;;22.23;;
14078;SDS011;7115;50.150;8.568;2023-12-07T12:51:06;46.23;;;22.10;;
14078;SDS011;7115;50.150;8.568;2023-12-07T12:53:34;52.43;;;23.13;;
14078;SDS011;7115;50.150;8.568;2023-12-07T12:56:02;55.70;;;22.50;;
14078;SDS011;7115;50.150;8.568;2023-12-07T12:58:30;49.90;;;22.60;;
14078;SDS011;7115;50.150;8.568;2023-12-07T13:00:57;47.13;;;22.23;;
14078;SDS011;7115;50.150;8.568;2023-12-07T13:03:24;42.77;;;22.10;;
14078;SDS011;7115;50.150;8.568;2023-12-07T13:05:53;44.87;;;20.87;;
14078;SDS011;7115;50.150;8.568;2023-12-07T13:08:20;48.87;;;22.23;;
14078;SDS011;7115;50.150;8.568;2023-12-07T13:10:47;44.33;;;21.27;;
14078;SDS011;7115;50.150;8.568;2023-12-07T13:13:14;43.97;;;21.10;;
14078;SDS011;7115;50.150;8.568;2023-12-07T13:15:42;44.50;;;21.80;;
14078;SDS011;7115;50.150;8.568;2023-12-07T13:18:09;48.20;;;21.97;;
14078;SDS011;7115;50.150;8.568;2023-12-07T13:20:36;44.50;;;21.80;;
14078;SDS011;7115;50.150;8.568;2023-12-07T13:23:07;44.67;;;21.63;;
14078;SDS011;7115;50.150;8.568;2023-12-07T13:25:34;45.57;;;22.97;;
14078;SDS011;7115;50.150;8.568;2023-12-07T13:28:01;56.87;;;25.63;;
14078;SDS011;7115;50.150;8.568;2023-12-07T13:30:28;53.20;;;22.70;;
14078;SDS011;7115;50.150;8.568;2023-12-07T13:32:55;53.63;;;24.33;;
14078;SDS011;7115;50.150;8.568;2023-12-07T13:35:23;54.20;;;22.63;;
14078;SDS011;7115;50.150;8.568;2023-12-07T13:37:51;43.20;;;21.70;;
14078;SDS011;7115;50.150;8.568;2023-12-07T13:40:19;42.83;;;19.50;;
14078;SDS011;7115;50.150;8.568;2023-12-07T13:42:46;52.87;;;22.70;;
14078;SDS011;7115;50.150;8.568;2023-12-07T13:45:13;49.90;;;21.80;;
14078;SDS011;7115;50.150;8.568;2023-12-07T13:47:40;43.53;;;20.67;;
14078;SDS011;7115;50.150;8.568;2023-12-07T13:50:07;46.07;;;20.30;;
14078;SDS011;7115;50.150;8.568;2023-12-07T13:52:34;42.83;;;20.60;;
14078;SDS011;7115;50.150;8.568;2023-12-07T13:55:01;43.13;;;21.70;;
14078;SDS011;7115;50.150;8.568;2023-12-07T13:57:30;50.20;;;21.37;;
14078;SDS011;7115;50.150;8.568;2023-12-07T13:59:57;46.73;;;20.17;;
14078;SDS011;7115;50.150;8.568;2023-12-07T14:02:24;45.80;;;21.20;;
14078;SDS011;7115;50.150;8.568;2023-12-07T14:04:52;45.83;;;20.87;;
14078;SDS011;7115;50.150;8.568;2023-12-07T14:07:20;39.77;;;19.20;;
14078;SDS011;7115;50.150;8.568;2023-12-07T14:09:51;37.73;;;20.10;;
14078;SDS011;7115;50.150;8.568;2023-12-07T14:12:24;37.97;;;19.00;;
14078;SDS011;7115;50.150;8.568;2023-12-07T14:14:53;39.33;;;17.33;;
14078;SDS011;7115;50.150;8.568;2023-12-07T14:17:24;39.13;;;18.57;;
14078;SDS011;7115;50.150;8.568;2023-12-07T14:20:03;37.97;;;18.17;;
14078;SDS011;7115;50.150;8.568;2023-12-07T14:22:51;35.53;;;17.43;;
14078;SDS011;7115;50.150;8.568;2023-12-07T14:25:18;39.87;;;18.90;;
14078;SDS011;7115;50.150;8.568;2023-12-07T14:27:45;35.30;;;16.37;;
14078;SDS011;7115;50.150;8.568;2023-12-07T14:30:14;34.63;;;16.97;;
14078;SDS011;7115;50.150;8.568;2023-12-07T14:32:43;32.63;;;16.23;;
14078;SDS011;7115;50.150;8.568;2023-12-07T14:35:14;37.23;;;16.33;;
14078;SDS011;7115;50.150;8.568;2023-12-07T14:37:42;32.83;;;16.93;;
14078;SDS011;7115;50.150;8.568;2023-12-07T14:40:10;34.07;;;17.27;;
14078;SDS011;7115;50.150;8.568;2023-12-07T14:42:38;34.40;;;17.30;;
14078;SDS011;7115;50.150;8.568;2023-12-07T14:45:05;34.27;;;16.93;;